Time;durP1;ratioP1;P1;durP2;ratioP2;P2;SDS_P1;SDS_P2;PMS_P1;PMS_P2;Temp;Humidity;BMP_temperature;BMP_pressure;BME280_temperature;BME280_humidity;BME280_pressure;Samples;Min_cycle;Max_cycle;Signal;HPM_P1;HPM_P2
2021/08/14 00:00:55;;;;;;;12.23;11.05;;;;;;;24.51;100.00;99085.25;5018402;28;20378;-64
2021/08/14 00:03:20;;;;;;;12.90;11.68;;;;;;;24.58;100.00;99089.13;5018773;28;20092;-64
2021/08/14 00:05:46;;;;;;;12.07;11.07;;;;;;;24.60;100.00;99089.88;5016305;28;20137;-64
2021/08/14 00:08:11;;;;;;;12.32;11.15;;;;;;;24.57;100.00;99095.31;5018641;28;20384;-64
2021/08/14 00:10:36;;;;;;;11.98;10.88;;;;;;;24.44;100.00;99092.69;5017860;28;20215;-64
2021/08/14 00:13:02;;;;;;;11.80;10.65;;;;;;;24.67;100.00;99092.91;5017568;28;20029;-64
2021/08/14 00:15:27;;;;;;;11.90;10.82;;;;;;;24.72;100.00;99096.91;5018971;28;20033;-64
2021/08/14 00:17:53;;;;;;;12.93;11.52;;;;;;;24.73;100.00;99089.88;5018265;28;20450;-64
2021/08/14 00:20:18;;;;;;;12.73;11.52;;;;;;;24.74;100.00;99089.75;5016710;28;20331;-64
2021/08/14 00:22:44;;;;;;;11.63;10.48;;;;;;;24.57;100.00;99083.03;5022148;28;20029;-65
2021/08/14 00:25:09;;;;;;;12.68;11.40;;;;;;;24.52;100.00;99082.53;5019658;28;20312;-64
2021/08/14 00:27:35;;;;;;;12.77;11.50;;;;;;;24.42;100.00;99088.50;5021493;28;20403;-64
2021/08/14 00:30:00;;;;;;;14.02;12.73;;;;;;;24.30;100.00;99084.94;5020608;28;20033;-64
2021/08/14 00:32:26;;;;;;;13.70;12.50;;;;;;;24.20;100.00;99083.03;5023163;28;20033;-64
2021/08/14 00:34:51;;;;;;;12.32;11.13;;;;;;;24.15;100.00;99085.97;5019744;28;20044;-64
2021/08/14 00:37:17;;;;;;;14.77;11.90;;;;;;;24.04;100.00;99084.03;5023821;28;20069;-64
2021/08/14 00:39:42;;;;;;;13.38;12.18;;;;;;;24.01;100.00;99084.25;5020869;28;20029;-64
2021/08/14 00:42:08;;;;;;;13.05;11.73;;;;;;;23.94;100.00;99082.97;5021230;28;20037;-64
2021/08/14 00:44:34;;;;;;;14.02;12.73;;;;;;;23.91;100.00;99079.72;5019051;28;20120;-65
2021/08/14 00:47:02;;;;;;;13.27;12.07;;;;;;;23.85;100.00;99080.13;5021809;28;20068;-64
2021/08/14 00:49:28;;;;;;;14.13;12.65;;;;;;;23.80;100.00;99082.22;5021766;28;20029;-64
2021/08/14 00:51:53;;;;;;;13.50;11.90;;;;;;;23.86;100.00;99082.63;5019597;28;20095;-64
2021/08/14 00:54:19;;;;;;;13.73;12.43;;;;;;;23.82;100.00;99077.69;5021493;28;20025;-64
2021/08/14 00:56:44;;;;;;;13.07;11.55;;;;;;;23.89;100.00;99076.38;5022473;28;20354;-64
2021/08/14 00:59:11;;;;;;;13.05;11.70;;;;;;;23.77;100.00;99075.38;5021199;28;20068;-64
2021/08/14 01:01:36;;;;;;;13.55;11.63;;;;;;;23.78;100.00;99077.06;5020689;28;20052;-64
2021/08/14 01:04:02;;;;;;;13.20;11.77;;;;;;;23.70;100.00;99074.09;5022652;28;20045;-64
2021/08/14 01:06:28;;;;;;;13.55;12.15;;;;;;;23.75;100.00;99076.44;5019719;28;20053;-64
2021/08/14 01:08:55;;;;;;;12.65;11.55;;;;;;;23.84;100.00;99067.97;5020162;28;20025;-64
2021/08/14 01:11:21;;;;;;;11.90;10.68;;;;;;;23.71;100.00;99078.41;5018610;28;20041;-64
2021/08/14 01:13:46;;;;;;;12.57;11.38;;;;;;;23.74;100.00;99074.75;5019776;28;20033;-64
2021/08/14 01:16:12;;;;;;;12.98;11.75;;;;;;;23.77;100.00;99066.66;5021719;28;20321;-64
2021/08/14 01:18:40;;;;;;;12.13;10.95;;;;;;;23.87;100.00;99073.00;5022826;28;20029;-64
2021/08/14 01:21:05;;;;;;;12.98;11.38;;;;;;;23.77;100.00;99067.53;5021495;28;20094;-64
2021/08/14 01:23:31;;;;;;;12.00;10.77;;;;;;;23.81;100.00;99076.00;5023126;28;20409;-64
2021/08/14 01:26:07;;;;;;;12.13;10.73;;;;;;;24.05;100.00;99071.78;5022311;28;20033;-64
2021/08/14 01:28:34;;;;;;;11.98;10.88;;;;;;;23.90;100.00;99070.16;5020108;28;20345;-64
2021/08/14 01:31:01;;;;;;;11.30;10.30;;;;;;;23.93;100.00;99067.38;5020098;28;20461;-64
2021/08/14 01:33:26;;;;;;;11.52;10.43;;;;;;;23.92;100.00;99063.06;5018753;28;20438;-64
2021/08/14 01:35:53;;;;;;;11.90;10.70;;;;;;;24.01;100.00;99062.44;5018588;28;20033;-64
2021/08/14 01:38:19;;;;;;;11.32;10.23;;;;;;;23.94;100.00;99069.03;5018276;28;20062;-64
2021/08/14 01:40:44;;;;;;;12.63;10.68;;;;;;;23.94;100.00;99058.53;5018334;28;20116;-64
2021/08/14 01:43:09;;;;;;;12.57;11.45;;;;;;;23.99;100.00;99054.69;5021125;28;20037;-64
2021/08/14 01:45:35;;;;;;;11.57;10.43;;;;;;;24.01;100.00;99046.72;5019923;28;20026;-64
2021/08/14 01:48:00;;;;;;;10.63;9.60;;;;;;;23.99;100.00;99053.84;5019202;28;20378;-66
2021/08/14 01:50:26;;;;;;;11.40;10.32;;;;;;;24.01;100.00;99050.19;5021091;28;20038;-66
2021/08/14 01:52:55;;;;;;;12.40;11.18;;;;;;;24.30;100.00;99050.03;5017936;28;20379;-66
2021/08/14 01:55:21;;;;;;;13.55;9.88;;;;;;;24.14;100.00;99058.06;5028342;28;20317;-66
2021/08/14 01:57:47;;;;;;;10.63;9.65;;;;;;;24.17;100.00;99057.03;5020927;28;20030;-66
2021/08/14 02:00:12;;;;;;;10.85;9.75;;;;;;;24.24;100.00;99056.53;5022728;28;20021;-66
2021/08/14 02:02:39;;;;;;;10.63;9.63;;;;;;;24.34;100.00;99054.13;5023156;28;20025;-66
2021/08/14 02:05:04;;;;;;;11.75;10.55;;;;;;;24.30;100.00;99055.28;5020232;28;20064;-66
2021/08/14 02:07:29;;;;;;;12.32;11.23;;;;;;;24.31;100.00;99057.81;5017120;28;20041;-66
2021/08/14 02:09:56;;;;;;;10.23;9.32;;;;;;;24.34;100.00;99057.59;5020031;28;20068;-66
2021/08/14 02:12:22;;;;;;;10.48;9.27;;;;;;;24.34;100.00;99060.19;5020364;28;20105;-66
2021/08/14 02:14:47;;;;;;;11.48;10.43;;;;;;;24.30;100.00;99056.13;5018766;28;20087;-66
2021/08/14 02:17:13;;;;;;;11.77;10.60;;;;;;;24.33;100.00;99049.81;5020642;28;20179;-66
2021/08/14 02:19:38;;;;;;;12.45;10.88;;;;;;;24.34;100.00;99054.13;5020330;28;20029;-66
2021/08/14 02:22:04;;;;;;;11.60;10.50;;;;;;;24.42;100.00;99050.03;5021502;28;20030;-66
2021/08/14 02:24:29;;;;;;;11.40;10.25;;;;;;;24.48;100.00;99060.09;5017988;28;20041;-66
2021/08/14 02:26:54;;;;;;;12.27;10.75;;;;;;;24.45;100.00;99055.06;5018311;28;20326;-66
2021/08/14 02:29:20;;;;;;;12.27;10.70;;;;;;;24.48;100.00;99064.50;5019797;28;20407;-65
2021/08/14 02:31:45;;;;;;;11.50;10.35;;;;;;;24.45;100.00;99062.06;5020088;28;20045;-66
2021/08/14 02:34:11;;;;;;;11.13;10.07;;;;;;;24.42;100.00;99065.75;5015650;28;20026;-66
2021/08/14 02:36:36;;;;;;;10.75;9.68;;;;;;;24.49;100.00;99058.28;5019632;28;20026;-66
2021/08/14 02:39:03;;;;;;;11.95;10.30;;;;;;;24.74;100.00;99055.66;5018873;28;20037;-66
2021/08/14 02:41:28;;;;;;;9.45;8.45;;;;;;;24.88;100.00;99060.81;5019797;28;20390;-66
2021/08/14 02:43:54;;;;;;;11.57;9.05;;;;;;;25.02;100.00;99068.56;5017654;28;20095;-66
2021/08/14 02:46:20;;;;;;;10.20;9.20;;;;;;;25.08;100.00;99074.31;5018519;28;20435;-66
2021/08/14 02:48:45;;;;;;;11.85;9.20;;;;;;;25.00;100.00;99070.44;5021226;28;20041;-66
2021/08/14 02:51:10;;;;;;;13.00;10.18;;;;;;;24.92;100.00;99072.75;5019518;28;20333;-66
2021/08/14 02:53:36;;;;;;;10.30;9.30;;;;;;;24.84;100.00;99076.84;5016597;28;20025;-66
2021/08/14 02:56:01;;;;;;;11.98;9.77;;;;;;;24.73;100.00;99084.63;5020287;28;20044;-66
2021/08/14 02:58:28;;;;;;;11.43;10.02;;;;;;;24.61;100.00;99088.94;5019894;28;20349;-66
2021/08/14 03:00:53;;;;;;;10.82;9.82;;;;;;;24.54;100.00;99096.38;5019420;28;20049;-66
2021/08/14 03:03:19;;;;;;;9.93;8.93;;;;;;;24.50;100.00;99097.53;5017582;28;20283;-66
2021/08/14 03:05:44;;;;;;;13.75;10.05;;;;;;;24.47;100.00;99084.63;5017185;28;20131;-66
2021/08/14 03:08:10;;;;;;;10.07;8.90;;;;;;;24.54;100.00;99085.88;5018359;28;20117;-66
2021/08/14 03:10:40;;;;;;;9.63;8.73;;;;;;;24.68;100.00;99084.94;5019476;28;20041;-66
2021/08/14 03:13:06;;;;;;;10.85;9.80;;;;;;;24.46;100.00;99085.56;5018640;28;20040;-66
2021/08/14 03:15:31;;;;;;;11.55;10.45;;;;;;;24.31;100.00;99091.03;5018738;28;20124;-66
2021/08/14 03:17:57;;;;;;;10.35;9.35;;;;;;;24.30;100.00;99086.72;5017701;28;20064;-66
2021/08/14 03:20:22;;;;;;;9.88;8.32;;;;;;;24.29;100.00;99083.25;5019312;28;20061;-66
2021/08/14 03:22:48;;;;;;;11.05;9.32;;;;;;;24.37;100.00;99091.44;5020232;28;20044;-66
2021/08/14 03:25:13;;;;;;;12.10;8.85;;;;;;;24.37;100.00;99112.41;5018271;28;20026;-66
2021/08/14 03:27:39;;;;;;;11.35;9.35;;;;;;;24.31;100.00;99107.59;5020647;28;20440;-66
2021/08/14 03:30:05;;;;;;;10.05;9.00;;;;;;;24.45;100.00;99109.25;5017764;28;20320;-66
2021/08/14 03:32:30;;;;;;;10.50;9.30;;;;;;;24.31;100.00;99112.84;5015778;28;20157;-66
2021/08/14 03:34:56;;;;;;;11.90;9.15;;;;;;;24.42;100.00;99109.47;5017032;28;20110;-66
2021/08/14 03:37:21;;;;;;;9.57;8.75;;;;;;;24.39;100.00;99114.94;5026867;28;20586;-66
2021/08/14 03:39:47;;;;;;;10.10;9.07;;;;;;;24.35;100.00;99103.81;5016435;28;20036;-66
2021/08/14 03:42:12;;;;;;;11.05;9.30;;;;;;;24.33;100.00;99110.09;5019175;28;20037;-66
2021/08/14 03:44:38;;;;;;;10.73;9.60;;;;;;;24.40;100.00;99106.13;5021788;28;20025;-66
2021/08/14 03:47:04;;;;;;;11.00;9.10;;;;;;;24.52;100.00;99105.31;5016215;28;20375;-66
2021/08/14 03:49:29;;;;;;;11.05;9.95;;;;;;;24.40;100.00;99106.94;5019144;28;20036;-65
2021/08/14 03:51:55;;;;;;;10.23;9.30;;;;;;;24.31;100.00;99114.63;5016624;28;20102;-65
2021/08/14 03:54:20;;;;;;;11.05;9.82;;;;;;;24.29;100.00;99124.34;5017960;28;20363;-65
2021/08/14 03:56:45;;;;;;;12.88;10.27;;;;;;;24.21;100.00;99124.88;5017095;28;20056;-66
2021/08/14 03:59:11;;;;;;;10.45;9.50;;;;;;;24.32;100.00;99124.13;5016805;28;20029;-65
2021/08/14 04:01:36;;;;;;;10.13;9.15;;;;;;;24.39;100.00;99123.66;5017978;28;20025;-65
2021/08/14 04:04:01;;;;;;;9.80;8.70;;;;;;;24.43;100.00;99112.00;5018360;28;20048;-65
2021/08/14 04:06:28;;;;;;;12.15;10.27;;;;;;;24.25;100.00;99113.25;5016923;28;20421;-64
2021/08/14 04:08:54;;;;;;;11.20;9.88;;;;;;;24.27;100.00;99116.59;5016458;28;20045;-65
2021/08/14 04:11:19;;;;;;;11.32;10.07;;;;;;;24.34;100.00;99123.09;5018127;28;20032;-65
2021/08/14 04:13:45;;;;;;;10.90;9.73;;;;;;;24.35;100.00;99118.72;5015618;28;20040;-65
2021/08/14 04:16:10;;;;;;;12.43;9.13;;;;;;;24.34;100.00;99122.25;5018449;28;20028;-65
2021/08/14 04:18:35;;;;;;;11.40;9.43;;;;;;;24.34;100.00;99117.03;5018985;28;20041;-65
2021/08/14 04:21:01;;;;;;;9.98;9.02;;;;;;;24.33;100.00;99117.97;5016734;28;20033;-65
2021/08/14 04:23:26;;;;;;;11.73;9.13;;;;;;;24.28;100.00;99117.41;5016393;28;20034;-65
2021/08/14 04:25:51;;;;;;;9.02;8.13;;;;;;;24.24;100.00;99115.94;5018234;28;20041;-66
2021/08/14 04:28:17;;;;;;;11.15;9.70;;;;;;;24.24;100.00;99123.81;5017233;28;20279;-64
2021/08/14 04:30:42;;;;;;;10.20;9.20;;;;;;;24.23;100.00;99120.34;5020774;28;20029;-64
2021/08/14 04:33:08;;;;;;;10.30;9.30;;;;;;;24.20;100.00;99122.34;5016394;28;20278;-66
2021/08/14 04:35:33;;;;;;;10.50;9.50;;;;;;;24.17;100.00;99128.63;5019918;28;20359;-66
2021/08/14 04:37:59;;;;;;;9.73;8.70;;;;;;;24.16;100.00;99129.56;5015277;28;20060;-66
2021/08/14 04:40:24;;;;;;;9.88;9.07;;;;;;;24.14;100.00;99121.75;5018398;28;20336;-64
2021/08/14 04:42:50;;;;;;;9.73;8.82;;;;;;;24.19;100.00;99126.75;5017962;28;20033;-65
2021/08/14 04:45:16;;;;;;;10.10;9.05;;;;;;;24.25;100.00;99123.72;5017785;28;20037;-66
2021/08/14 04:47:41;;;;;;;10.38;9.48;;;;;;;24.33;100.00;99123.19;5016236;28;20029;-65
2021/08/14 04:50:09;;;;;;;10.63;9.57;;;;;;;24.55;100.00;99126.06;5019590;28;20030;-64
2021/08/14 04:52:35;;;;;;;12.90;9.07;;;;;;;24.53;100.00;99120.06;5017134;28;20044;-65
2021/08/14 04:55:00;;;;;;;10.98;9.32;;;;;;;24.67;100.00;99127.00;5017011;28;20290;-66
2021/08/14 04:57:26;;;;;;;10.23;9.20;;;;;;;24.69;100.00;99127.75;5015785;28;20585;-66
2021/08/14 04:59:51;;;;;;;13.48;9.68;;;;;;;24.71;100.00;99125.84;5017226;28;20025;-66
2021/08/14 05:02:18;;;;;;;12.00;9.35;;;;;;;24.88;100.00;99130.78;5015828;28;20029;-65
2021/08/14 05:04:43;;;;;;;11.20;10.02;;;;;;;24.96;100.00;99136.34;5018686;28;20359;-65
2021/08/14 05:07:09;;;;;;;11.68;9.50;;;;;;;25.16;100.00;99129.72;5016384;28;20056;-65
2021/08/14 05:09:36;;;;;;;9.90;9.00;;;;;;;25.21;100.00;99125.81;5021305;28;20037;-65
2021/08/14 05:12:01;;;;;;;10.57;9.50;;;;;;;25.24;100.00;99125.59;5020537;28;20420;-65
2021/08/14 05:14:26;;;;;;;9.18;8.27;;;;;;;25.35;100.00;99125.66;5020753;28;20456;-65
2021/08/14 05:16:52;;;;;;;10.60;9.50;;;;;;;25.38;100.00;99130.69;5019163;28;20025;-66
2021/08/14 05:19:17;;;;;;;12.23;9.70;;;;;;;25.57;100.00;99122.38;5018968;28;20038;-65
2021/08/14 05:21:43;;;;;;;10.70;9.60;;;;;;;25.70;100.00;99124.94;5019878;28;20441;-65
2021/08/14 05:24:08;;;;;;;9.98;8.73;;;;;;;25.76;99.00;99122.69;5018207;28;20033;-65
2021/08/14 05:26:34;;;;;;;11.30;8.43;;;;;;;25.95;97.36;99132.72;5019187;28;20026;-66
2021/08/14 05:28:59;;;;;;;9.95;8.60;;;;;;;25.99;94.22;99123.63;5019990;28;20030;-65
2021/08/14 05:31:25;;;;;;;10.40;7.88;;;;;;;26.01;93.31;99127.00;5022475;28;20033;-65
2021/08/14 05:33:50;;;;;;;13.00;9.77;;;;;;;26.29;93.62;99121.38;5020820;28;20041;-64
2021/08/14 05:36:16;;;;;;;13.13;8.32;;;;;;;26.28;91.75;99130.22;5020818;28;20025;-65
2021/08/14 05:38:41;;;;;;;8.93;7.45;;;;;;;26.62;90.12;99120.59;5021576;28;20034;-65
2021/08/14 05:41:07;;;;;;;8.60;7.78;;;;;;;26.87;88.35;99119.56;5020310;28;20025;-66
2021/08/14 05:43:33;;;;;;;11.35;8.20;;;;;;;27.09;87.41;99121.38;5021050;28;20034;-66
2021/08/14 05:45:59;;;;;;;9.75;8.85;;;;;;;27.17;87.00;99114.53;5016331;28;20415;-65
2021/08/14 05:48:24;;;;;;;8.77;7.93;;;;;;;27.30;86.87;99118.81;5021734;28;20366;-64
2021/08/14 05:50:49;;;;;;;8.80;8.13;;;;;;;27.48;87.99;99120.03;5017853;28;20246;-65
2021/08/14 05:53:15;;;;;;;10.68;9.60;;;;;;;27.64;87.37;99129.19;5022613;28;20075;-65
2021/08/14 05:55:41;;;;;;;8.90;8.10;;;;;;;27.80;84.64;99131.41;5019648;28;20029;-66
2021/08/14 05:58:07;;;;;;;11.20;8.63;;;;;;;27.97;83.40;99122.13;5014378;28;20342;-65
2021/08/14 06:00:32;;;;;;;16.52;8.95;;;;;;;28.09;82.49;99135.16;5020524;28;20360;-65
2021/08/14 06:02:57;;;;;;;9.30;8.38;;;;;;;28.26;81.10;99127.69;5019855;28;20457;-66
2021/08/14 06:05:23;;;;;;;9.40;8.60;;;;;;;28.49;80.15;99132.69;5019153;28;20045;-65
2021/08/14 06:07:50;;;;;;;9.70;8.70;;;;;;;28.68;80.15;99131.97;5019537;28;20038;-66
2021/08/14 06:10:17;;;;;;;8.88;8.18;;;;;;;28.69;79.53;99145.97;5018878;28;20060;-66
2021/08/14 06:12:43;;;;;;;9.80;8.90;;;;;;;28.72;79.98;99135.22;5020353;28;20034;-65
2021/08/14 06:15:09;;;;;;;9.27;8.38;;;;;;;28.61;74.59;99150.09;5019673;28;20025;-65
2021/08/14 06:17:34;;;;;;;9.73;8.93;;;;;;;28.84;70.30;99140.28;5020071;28;20302;-65
2021/08/14 06:20:00;;;;;;;9.18;8.30;;;;;;;29.09;67.84;99146.06;5020977;28;20121;-65
2021/08/14 06:22:26;;;;;;;11.00;8.85;;;;;;;29.20;66.69;99152.09;5019007;28;20113;-65
2021/08/14 06:24:53;;;;;;;10.00;7.85;;;;;;;29.09;65.65;99156.63;5021122;28;20338;-65
2021/08/14 06:27:19;;;;;;;9.05;8.20;;;;;;;29.14;65.34;99155.28;5020248;28;20041;-65
2021/08/14 06:29:44;;;;;;;9.32;8.45;;;;;;;29.46;62.94;99158.59;5020601;28;20400;-65
2021/08/14 06:32:10;;;;;;;11.23;8.45;;;;;;;29.49;63.47;99155.66;5020311;28;20112;-65
2021/08/14 06:34:35;;;;;;;10.15;7.85;;;;;;;29.60;61.85;99157.38;5021097;28;20095;-65
2021/08/14 06:37:00;;;;;;;10.98;9.57;;;;;;;29.59;59.55;99155.69;5019513;28;20029;-65
2021/08/14 06:39:26;;;;;;;8.85;8.23;;;;;;;29.64;58.56;99152.66;5021018;28;20036;-65
2021/08/14 06:41:51;;;;;;;9.02;8.18;;;;;;;29.57;59.77;99144.44;5017665;28;20037;-65
2021/08/14 06:44:17;;;;;;;9.13;8.07;;;;;;;29.72;59.00;99142.22;5018878;28;20080;-65
2021/08/14 06:46:42;;;;;;;9.32;8.52;;;;;;;29.90;57.71;99153.84;5018578;28;20124;-65
2021/08/14 06:49:07;;;;;;;9.38;8.30;;;;;;;30.21;57.31;99154.53;5019565;28;20378;-65
2021/08/14 06:51:33;;;;;;;9.77;8.77;;;;;;;30.11;56.52;99153.69;5019117;28;20090;-65
2021/08/14 06:53:59;;;;;;;10.27;9.27;;;;;;;30.26;55.59;99153.13;5018482;28;20036;-65
2021/08/14 06:56:25;;;;;;;9.88;8.88;;;;;;;30.38;57.21;99159.94;5018453;28;20034;-65
2021/08/14 06:58:50;;;;;;;10.52;9.43;;;;;;;30.59;55.66;99162.47;5017877;28;20070;-66
2021/08/14 07:01:16;;;;;;;15.85;9.48;;;;;;;30.60;54.12;99166.75;5018564;28;20029;-64
2021/08/14 07:03:41;;;;;;;10.02;9.23;;;;;;;30.89;53.28;99155.28;5021045;28;20247;-66
2021/08/14 07:06:07;;;;;;;12.48;9.57;;;;;;;30.80;54.45;99159.63;5013114;28;20096;-64
2021/08/14 07:08:32;;;;;;;11.15;9.07;;;;;;;31.11;53.25;99160.22;5016377;28;20409;-64
2021/08/14 07:10:57;;;;;;;10.70;9.10;;;;;;;31.17;51.11;99157.00;5018357;28;20445;-64
2021/08/14 07:13:23;;;;;;;9.80;8.90;;;;;;;31.36;51.95;99159.53;5021547;28;20382;-64
2021/08/14 07:15:48;;;;;;;9.02;8.07;;;;;;;31.63;50.29;99164.88;5018886;28;20026;-64
2021/08/14 07:18:14;;;;;;;12.57;8.70;;;;;;;31.58;50.40;99164.47;5023327;28;20067;-64
2021/08/14 07:20:39;;;;;;;10.57;9.23;;;;;;;31.47;51.46;99156.69;5018907;28;20678;-64
2021/08/14 07:23:04;;;;;;;9.57;8.68;;;;;;;31.58;50.94;99156.50;5018133;28;20037;-65
2021/08/14 07:25:30;;;;;;;10.57;8.82;;;;;;;31.85;50.62;99170.72;5018684;28;20449;-66
2021/08/14 07:27:56;;;;;;;11.00;9.80;;;;;;;31.94;49.91;99164.53;5016608;28;20030;-64
2021/08/14 07:30:21;;;;;;;9.70;8.75;;;;;;;32.06;48.24;99164.13;5015390;28;20048;-66
2021/08/14 07:32:47;;;;;;;11.15;8.73;;;;;;;32.31;47.43;99157.25;5019473;28;20076;-66
2021/08/14 07:35:12;;;;;;;12.25;8.60;;;;;;;32.48;46.38;99153.72;5026716;28;20467;-65
2021/08/14 07:38:04;;;;;;;11.63;8.63;;;;;;;32.75;44.74;99151.94;5017215;28;20099;-65
2021/08/14 07:40:29;;;;;;;11.63;8.13;;;;;;;32.51;46.01;99150.75;5015349;28;20069;-65
2021/08/14 07:42:55;;;;;;;11.73;8.00;;;;;;;32.47;45.17;99152.06;5017958;28;20164;-65
2021/08/14 07:45:21;;;;;;;8.98;8.20;;;;;;;32.18;46.39;99156.81;5018639;28;20030;-65
2021/08/14 07:47:48;;;;;;;12.23;8.20;;;;;;;32.78;46.03;99155.13;5018475;28;20035;-65
2021/08/14 07:50:25;;;;;;;11.10;8.07;;;;;;;33.32;44.25;99147.75;5019385;28;20038;-65
2021/08/14 07:52:51;;;;;;;12.98;8.50;;;;;;;33.16;43.76;99151.19;5019973;28;20457;-65
2021/08/14 07:55:17;;;;;;;8.60;7.82;;;;;;;33.40;43.20;99143.31;5016239;28;20029;-65
2021/08/14 07:57:43;;;;;;;9.75;8.93;;;;;;;33.46;43.18;99144.50;5022478;28;20029;-65
2021/08/14 08:00:11;;;;;;;14.57;8.80;;;;;;;33.63;43.39;99153.34;5015743;28;20049;-65
2021/08/14 08:02:37;;;;;;;10.45;8.43;;;;;;;33.22;44.62;99150.56;5021248;28;20393;-65
2021/08/14 08:05:04;;;;;;;11.20;8.68;;;;;;;32.99;45.04;99157.38;5018690;28;20054;-65
2021/08/14 08:07:31;;;;;;;10.35;8.73;;;;;;;33.08;45.17;99154.63;5017511;28;20094;-65
2021/08/14 08:09:57;;;;;;;9.10;8.30;;;;;;;32.34;45.63;99161.41;5016272;28;20076;-65
2021/08/14 08:12:22;;;;;;;10.93;8.07;;;;;;;32.24;46.56;99158.03;5016303;28;20061;-65
2021/08/14 08:14:47;;;;;;;10.73;7.40;;;;;;;32.82;44.96;99152.97;5015117;28;20152;-65
2021/08/14 08:17:13;;;;;;;12.98;8.68;;;;;;;32.91;45.77;99141.41;5015552;28;20038;-65
2021/08/14 08:19:38;;;;;;;10.73;7.85;;;;;;;32.59;46.64;99153.47;5013845;28;20371;-65
2021/08/14 08:22:04;;;;;;;12.32;7.82;;;;;;;32.56;45.53;99147.63;5013322;28;20317;-65
2021/08/14 08:24:30;;;;;;;8.57;7.72;;;;;;;32.20;45.93;99156.66;5017518;28;20072;-65
2021/08/14 08:26:56;;;;;;;7.70;6.95;;;;;;;32.80;45.24;99137.22;5018012;28;20041;-65
2021/08/14 08:29:21;;;;;;;13.82;8.48;;;;;;;33.13;44.17;99140.84;5016031;28;20439;-65
2021/08/14 08:31:47;;;;;;;11.77;7.40;;;;;;;33.39;43.09;99136.34;5013629;28;20047;-64
2021/08/14 08:34:13;;;;;;;9.13;7.53;;;;;;;33.42;43.51;99137.84;5013355;28;20029;-64
2021/08/14 08:36:38;;;;;;;8.85;7.82;;;;;;;33.04;43.80;99136.50;5016876;28;20053;-65
2021/08/14 08:39:04;;;;;;;9.75;8.32;;;;;;;33.19;43.62;99132.25;5014247;28;20141;-66
2021/08/14 08:41:31;;;;;;;10.55;7.80;;;;;;;33.25;42.58;99130.78;5013331;28;20346;-64
2021/08/14 08:43:57;;;;;;;8.25;7.55;;;;;;;33.22;43.20;99133.78;5017866;28;20087;-65
2021/08/14 08:46:23;;;;;;;10.45;7.57;;;;;;;33.22;42.94;99133.78;5017238;28;20407;-65
2021/08/14 08:48:50;;;;;;;8.82;7.47;;;;;;;33.73;42.19;99130.97;5017225;28;20025;-64
2021/08/14 08:51:23;;;;;;;14.13;7.85;;;;;;;33.42;42.10;99133.34;5019632;28;20124;-64
2021/08/14 08:53:48;;;;;;;10.25;7.70;;;;;;;33.50;42.13;99128.06;5021481;28;20037;-64
2021/08/14 08:56:14;;;;;;;9.15;7.93;;;;;;;33.91;41.69;99125.47;5023481;28;20240;-64
2021/08/14 08:58:39;;;;;;;9.65;7.88;;;;;;;34.17;41.28;99122.69;5019154;28;20034;-64
2021/08/14 09:01:05;;;;;;;12.13;7.32;;;;;;;34.52;41.13;99130.31;5019225;28;20025;-64
2021/08/14 09:03:31;;;;;;;13.60;7.63;;;;;;;35.03;39.10;99126.38;5018447;28;20142;-64
2021/08/14 09:05:57;;;;;;;9.40;8.43;;;;;;;35.51;38.57;99128.03;5020431;28;20046;-64
2021/08/14 09:08:23;;;;;;;13.18;8.20;;;;;;;34.72;39.91;99125.47;5020218;28;20037;-64
2021/08/14 09:10:50;;;;;;;11.70;7.93;;;;;;;34.38;40.15;99125.66;5021620;28;20021;-64
2021/08/14 09:13:18;;;;;;;10.40;7.53;;;;;;;34.93;40.29;99119.56;5027373;28;20021;-64
2021/08/14 09:15:45;;;;;;;11.52;8.27;;;;;;;34.72;39.78;99114.81;5022690;28;20064;-64
2021/08/14 09:18:12;;;;;;;13.00;8.90;;;;;;;34.66;40.38;99126.16;5021346;28;20048;-64
2021/08/14 09:20:53;;;;;;;18.05;9.90;;;;;;;34.91;40.40;99114.44;5023629;28;20037;-66
2021/08/14 09:23:20;;;;;;;13.43;8.48;;;;;;;34.19;42.45;99123.38;5023979;28;20056;-64
2021/08/14 09:25:47;;;;;;;12.63;9.40;;;;;;;34.23;44.04;99122.88;5023997;28;20029;-64
2021/08/14 09:28:16;;;;;;;13.02;8.45;;;;;;;34.70;42.54;99130.16;5021731;28;20045;-64
2021/08/14 09:30:53;;;;;;;8.85;8.07;;;;;;;34.72;43.70;99123.66;5020032;28;20040;-63
2021/08/14 09:33:26;;;;;;;10.52;9.35;;;;;;;34.96;41.15;99111.25;5019457;28;20041;-60
2021/08/14 09:36:00;;;;;;;9.55;8.55;;;;;;;35.68;41.49;99113.63;5021908;28;20109;-60
2021/08/14 09:38:42;;;;;;;8.55;7.57;;;;;;;36.15;39.05;99109.94;5019557;28;20052;-60
2021/08/14 09:41:13;;;;;;;10.23;8.98;;;;;;;36.14;40.73;99106.44;5022856;28;20406;-60
2021/08/14 09:43:39;;;;;;;9.57;8.15;;;;;;;35.95;40.49;99120.22;5019184;28;20460;-60
2021/08/14 09:46:05;;;;;;;10.73;8.38;;;;;;;35.22;42.53;99120.66;5018544;28;20029;-60
2021/08/14 09:48:31;;;;;;;10.75;9.18;;;;;;;35.41;40.27;99108.72;5019881;28;20072;-60
2021/08/14 09:50:57;;;;;;;14.38;10.73;;;;;;;35.37;41.38;99109.25;5020745;28;20040;-59
2021/08/14 09:53:25;;;;;;;9.70;8.93;;;;;;;35.60;41.35;99110.97;5018297;28;20041;-61
2021/08/14 09:56:07;;;;;;;11.13;8.50;;;;;;;35.68;40.85;99102.94;5017819;28;20037;-60
2021/08/14 09:58:32;;;;;;;7.88;7.15;;;;;;;35.63;38.85;99104.44;5020929;28;20045;-60
2021/08/14 10:01:01;;;;;;;8.15;6.93;;;;;;;35.82;36.49;99103.97;5019474;28;20339;-60
2021/08/14 10:03:31;;;;;;;11.20;9.07;;;;;;;35.96;38.57;99097.03;5018077;28;20090;-60
2021/08/14 10:05:58;;;;;;;11.65;9.63;;;;;;;35.86;40.53;99091.94;5021161;28;20354;-60
2021/08/14 10:08:25;;;;;;;9.55;8.57;;;;;;;35.85;40.51;99086.81;5018024;28;20026;-60
2021/08/14 10:10:51;;;;;;;10.32;9.40;;;;;;;35.90;38.53;99095.91;5028356;28;20279;-60
2021/08/14 10:13:18;;;;;;;8.43;6.15;;;;;;;35.79;36.10;99088.34;5020745;28;20112;-60
2021/08/14 10:15:44;;;;;;;6.63;5.93;;;;;;;35.49;35.12;99081.16;5021430;28;20033;-60
2021/08/14 10:18:11;;;;;;;7.15;6.07;;;;;;;35.59;35.53;99087.13;5018650;28;20406;-60
2021/08/14 10:20:36;;;;;;;5.60;5.20;;;;;;;35.09;32.95;99075.06;5017781;28;20033;-60
2021/08/14 10:23:08;;;;;;;7.43;6.60;;;;;;;35.21;33.26;99076.34;5019862;28;20048;-60
2021/08/14 10:25:36;;;;;;;7.28;6.13;;;;;;;35.12;33.59;99072.03;5017581;28;20073;-60
2021/08/14 10:28:05;;;;;;;7.15;5.82;;;;;;;35.25;34.39;99066.16;5020602;28;20042;-60
2021/08/14 10:30:47;;;;;;;8.50;5.38;;;;;;;35.57;33.02;99070.44;5019131;28;20041;-60
2021/08/14 10:33:27;;;;;;;7.25;6.70;;;;;;;35.86;33.43;99070.59;5018329;28;20088;-60
2021/08/14 10:35:54;;;;;;;6.28;5.78;;;;;;;35.47;32.26;99059.19;5019947;28;20460;-60
2021/08/14 10:38:39;;;;;;;7.32;5.50;;;;;;;35.48;33.45;99060.81;5020555;28;20306;-60
2021/08/14 10:41:06;;;;;;;8.80;6.30;;;;;;;35.12;34.50;99049.88;5020177;28;20033;-60
2021/08/14 10:43:57;;;;;;;10.25;6.57;;;;;;;35.50;33.89;99054.34;5021531;28;20412;-61
2021/08/14 10:46:32;;;;;;;8.73;5.90;;;;;;;35.89;32.73;99051.56;5020221;28;20061;-59
2021/08/14 10:48:58;;;;;;;6.47;5.75;;;;;;;35.78;34.00;99046.63;5019823;28;20108;-59
2021/08/14 10:51:46;;;;;;;8.20;6.13;;;;;;;36.38;33.30;99033.25;5019491;28;20033;-61
2021/08/14 10:54:35;;;;;;;6.20;5.60;;;;;;;36.36;34.67;99034.44;5017446;28;20037;-61
2021/08/14 10:57:05;;;;;;;7.03;6.32;;;;;;;36.89;33.04;99036.00;5017460;28;20038;-61
2021/08/14 10:59:40;;;;;;;5.95;5.45;;;;;;;37.29;32.23;99024.78;5021377;28;20330;-61
2021/08/14 11:02:08;;;;;;;8.27;7.15;;;;;;;37.07;33.15;99036.47;5019702;28;20506;-62
2021/08/14 11:04:36;;;;;;;8.32;6.45;;;;;;;36.98;32.27;99024.19;5020092;28;20078;-60
2021/08/14 11:07:16;;;;;;;7.45;6.38;;;;;;;36.38;32.09;99024.41;5017728;28;20064;-61
2021/08/14 11:09:42;;;;;;;7.35;6.03;;;;;;;36.56;32.13;99012.34;5017948;28;20057;-62
2021/08/14 11:12:08;;;;;;;10.50;7.25;;;;;;;36.72;32.35;99010.50;5018925;28;20116;-62
2021/08/14 11:14:45;;;;;;;6.88;5.90;;;;;;;37.13;31.42;99008.16;5020906;28;20095;-65
2021/08/14 11:17:13;;;;;;;7.47;6.18;;;;;;;37.35;31.36;99012.47;5019745;28;20391;-64
2021/08/14 11:19:41;;;;;;;8.18;5.28;;;;;;;37.18;32.02;99000.38;5017979;28;20029;-64